메인 페이지
METAR-TAF:

METAR-TAF

공항 :

상파울루, 상파울루, 브라질

위도: 23-31S, 경도: 046-38W, 고도: 722m

현재 날씨관측

예보는 6 시간 49분 전, 02:00시(UTC)에 발표되었습니다.
북북서6kt풍과 북동풍을 오가는
온도 21°C
습도 100%
기압 1018 hPa
시정: 7000m
고도 800ft 상공 구름 보통
고도 8000ft 상공 구름 많음
약한비

METAR: SBMT 010200Z 34006KT 270V050 7000 -RA SCT008 BKN080 21/21 Q1018

시각: 06:49 (08:49 UTC)


TAF: 누락

4,000개 이상의 공항 관측 자료 및 예보 (METAR 및 TAF 보고).

지도상에서 검색 가능한 기상관측소가 노란 점과 빨간 점으로 표시되어 있습니다.

기상관측소 명을 보려면 표시 위로 마우스를 이동하세요.

날씨 관측과 예보를 보려면 클릭하세요.

지도 변경 : 확대하려면 엑스 표시가 있는 녹색 버튼, 축소하려면 빼기 표시가 있는 녹색 버튼, 다음 페이지의 지도를 보려면 녹색 화살표를 클릭하세요.


METAR-TAF: